Aérodrome :







RETROUVEZ-NOUS SUR...

 
LOGIN :

S'inscrire | Disclaimer

   EN    FR    IT 

 









Légende :    VFR   VFR Marginal   IFR   IFR Intensif   IFR Très Intensif
Visi : 
Plafond : 
>= 8 km
>= 3000ft
5 à 8 km
1000 à 3000 ft
1500m à 5 km
500 à 1000 ft
800 à 1500m
200 à 500 ft
< 800m
< 200 ft
Symboles :   Orages  Brouillard  Fortes neiges  Fortes précipitations  Vent > 20 kt






- Altitude de l'aérodrome : 27 ft
- Code IATA : FSP


LFVP - St Pierre et Miquelon

DERNIER METAR :
  • 161800Z 23026KT 9999 BKN030 00/M03 Q1019 NOSIG

METARs EXPIRÉS :
  • 161700Z 24025KT 9999 BKN023 M00/M03 Q1020 NOSIG
  • 161600Z 24025KT 9999 BKN026 M01/M04 Q1021 NOSIG

TAF TAF LFVP
Valide du 16 à 18h jusqu'au 17 à 03h UTC


161700Z 1618/1703 24025G35KT 9999 BKN026
BECMG 1619/1621 3000 -SN OVC012



MET'MAP, la Météo Aéronautique d'un coup d'oeil ! - Copyright ORBIFLY Décembre 2007 - Disclaimer

ORBIFLY MET'MAP TEAM :

Programmation & Développement : Alexandra Zaïnal
Sur une idée originale de : Baudouin d'Aumeries
Assistance à la programmation : Marc-Olivier Méhu
Soutien technique & logistique : Manuel Goepfert

Contact : metmap@orbifly.com




SOURCES & CREDITS :

   NOAA